Ambanja, Madagascar
Current Conditions -  °F | °C
As of 1:00 AM on Friday 21 Nov 2014 (Local Time) from FMNM Reporting Station
Scattered Clouds Scattered Clouds  
Wind Chill: 79°   Ceiling: Unl
Heat Index: 82°   Visibility: 6mi
Dew Point: 75°   Wind: 5mph
Humidity: 89%   Direction: 320°NW
Pressure: 29.85"   Gusts: NA
Location:  13.68°S, 48.45°E
Report Text: FMNM 202200Z 32004KT 9999 FEW020 SCT100 26/24 Q1011
Loading
Personal Weather Stations






























Interactive Weather Map New forecast layout! Learn more

10-Day Weather Forecast

Advertisements
Track Severe Weather on mobile